Terminal Aerodrome Forecast
Issued by NWS

Home | Current Version | Previous Version | Text Only | Print | Product List | Glossary On
Versions: 1 2 3 4 5 6 7 8 9 10 11 12 13 14 15 16 17 18 19 20 21 22 23 24 25 26 27 28 29 30
000
FTUS42 KCAE 300500
TAFOGB
TAF
KOGB 300523Z 3006/0106 07004KT P6SM SCT009 OVC035
     FM300700 03005KT 4SM BR OVC008
     FM301400 03005KT P6SM BKN025
     FM301500 03006KT P6SM SCT040=

USA.gov is the U.S. government's official web portal to all federal, state and local government web resources and services.